EPLR weather

Lublin Radwiec Airfield
Lublin, Poland

Public forecast

Using degrees Celsius for public forecast. Weather courtesy of forecast.io.

Closest aviation weather report (METAR) to Lublin Radwiec Airfield

Report is more than 6 hours old.

Closest report is Radom Airport, 45.5 nm (84.2 km) WNW. Retrieved 2019/10/18 14:00 UTC (2 days ago):

EPRA 181400Z 20006KT CAVOK 19/09 Q1014

Closest aviation forecast (TAF) to Lublin Radwiec Airfield

Closest forecast is Rzesz√≥w-Jasionka Airport, 68.3 nm (126.4 km) SSW. Retrieved 2019/10/20 12:33 UTC (3 hours ago):

TAF EPRZ 201130Z 2012/2112 20010KT CAVOK TEMPO 2012/2015 20019G29KT TEMPO 2109/2112 20015G25KT